x

North Channel East (45154) Wave Buoy

10:00am - Sun 28th May 2017 All times are CDT. -5 hours from GMT.

  • Sig Wave height 0.3ft
  • Peak Period 2s
  • Wind
    9mph, 11mph gusts
  • Sea Temp 49°f
  • Air Temp 53°f
  • Sea Pressure 1008.7mb
  • North Channel East
  • North Channel East

More Historic Weather Station data

Upgrade to MSW Pro to gain access to the past 30 days of data for over 8000 Wavebouys and Weather Stations around the globe.

Join Pro

Comparision Forecast

View Surf forecast
   
Sun 05/28 10:00am 0.3ft 2s 9 11 mph 1008.7mb 49f 53f
9:00am 0.3ft 2s 7 9 mph 1008.7mb 49f 52f
8:00am 0.3ft 2s 7 7 mph 1008.8mb 49f 51f
7:00am 0.3ft 3s 9 11 mph 1009mb 49f 51f
6:00am  -  3s 7 9 mph 1009.5mb 49f 51f
5:00am  -  2s 7 9 mph 1009.9mb 49f 51f
4:00am  -  2s 4 7 mph 1010.2mb 49f 51f
3:00am  -  2s 4 7 mph 1010.6mb 48f 51f
2:00am  -  2s 9 9 mph 1010.5mb 48f 51f
1:00am 0.3ft 2s 4 4 mph 1011.4mb 48f 51f
12:00am 0.3ft 2s 2 2 mph 1011.6mb 48f 53f
Sat 05/27 11:00pm 0.3ft 2s 2 2 mph 1011.3mb 49f 53f
10:00pm 0.3ft 2s 2 4 mph 1011.9mb 49f 50f
9:00pm 0.3ft 2s 2 2 mph 1012.4mb 49f 50f
8:00pm 0.3ft 2s 4 7 mph 1011mb 49f 54f
7:00pm 0.7ft 2s 4 7 mph 1011.3mb 49f 54f
6:00pm 0.3ft 2s 7 7 mph 1012mb 50f 56f
5:00pm 0.7ft 2s 7 9 mph 1012.3mb 50f 57f
4:00pm 0.3ft 2s 4 7 mph 1012.4mb 51f 57f
3:00pm 0.3ft 2s 9 11 mph 1012.1mb 51f 58f
2:00pm  -  2s 7 9 mph 1012.3mb 52f 58f
1:00pm  -  4s 7 9 mph 1012.5mb 54f 58f
12:00pm  -  2s 2 4 mph 1012.4mb 56f 60f
11:00am  -  2s 2 2 mph 1012.4mb 55f 57f
10:00am  -  2s  -  2 mph 1013.1mb 53f 54f